createdAt,value
2018-02-14T00:01:02.106Z,99.90
2018-02-14T00:03:29.686Z,99.90
2018-02-14T00:05:57.147Z,99.90
2018-02-14T00:08:24.630Z,99.90
2018-02-14T00:10:52.152Z,99.90
2018-02-14T00:13:19.613Z,99.90
2018-02-14T00:15:47.148Z,99.90
2018-02-14T00:18:14.605Z,99.90
2018-02-14T00:20:42.872Z,99.90
2018-02-14T00:23:10.358Z,99.90
2018-02-14T00:25:38.291Z,99.90
2018-02-14T00:28:05.900Z,99.90
2018-02-14T00:30:33.358Z,99.90
2018-02-14T00:33:00.818Z,99.90
2018-02-14T00:35:28.284Z,99.90
2018-02-14T00:37:55.754Z,99.90
2018-02-14T00:40:24.014Z,99.90
2018-02-14T00:42:51.474Z,99.90
2018-02-14T00:45:18.909Z,99.90
2018-02-14T00:47:46.403Z,99.90
2018-02-14T00:50:14.611Z,99.90
2018-02-14T00:52:42.094Z,99.90
2018-02-14T00:55:09.574Z,99.90
2018-02-14T00:57:37.125Z,99.90
2018-02-14T01:00:04.585Z,99.90
2018-02-14T01:02:32.062Z,99.90
2018-02-14T01:04:59.495Z,99.90
2018-02-14T01:07:26.975Z,99.90
2018-02-14T01:09:54.418Z,99.90
2018-02-14T01:12:21.919Z,99.90
2018-02-14T01:14:49.378Z,99.90
2018-02-14T01:17:17.610Z,99.90
2018-02-14T01:19:45.052Z,99.90
2018-02-14T01:22:12.526Z,99.90
2018-02-14T01:24:39.997Z,99.90
2018-02-14T01:27:07.457Z,99.90
2018-02-14T01:29:34.944Z,99.90
2018-02-14T01:32:03.172Z,99.90
2018-02-14T01:34:30.650Z,99.90
2018-02-14T01:36:58.105Z,99.90
2018-02-14T01:39:25.567Z,99.90
2018-02-14T01:41:53.027Z,99.90
2018-02-14T01:44:20.486Z,99.90
2018-02-14T01:46:47.945Z,99.90
2018-02-14T01:49:15.420Z,99.90
2018-02-14T01:51:43.632Z,99.90
2018-02-14T01:54:11.230Z,99.90
2018-02-14T01:56:38.693Z,99.90
2018-02-14T01:59:06.272Z,99.90
2018-02-14T02:01:34.552Z,99.90
2018-02-14T02:04:01.983Z,99.90
2018-02-14T02:06:29.444Z,99.90
2018-02-14T02:08:56.900Z,99.90
2018-02-14T02:11:24.339Z,99.90
2018-02-14T02:13:51.819Z,99.90
2018-02-14T02:16:19.305Z,99.90
2018-02-14T02:18:47.500Z,99.90
2018-02-14T02:21:14.988Z,99.90
2018-02-14T02:23:42.453Z,99.90
2018-02-14T02:26:09.927Z,99.90
2018-02-14T02:28:37.382Z,99.90
2018-02-14T02:31:04.826Z,99.90
2018-02-14T02:33:32.287Z,99.90
2018-02-14T02:35:59.732Z,99.90
2018-02-14T02:38:27.207Z,99.90
2018-02-14T02:40:54.662Z,99.90
2018-02-14T02:43:22.145Z,99.90
2018-02-14T02:45:49.604Z,99.90
2018-02-14T02:48:17.046Z,99.90
2018-02-14T02:50:44.516Z,99.90
2018-02-14T02:53:11.972Z,99.90
2018-02-14T02:55:39.554Z,99.90
2018-02-14T02:58:07.806Z,99.90
2018-02-14T03:00:35.264Z,99.90
2018-02-14T03:03:02.727Z,99.90
2018-02-14T03:05:30.999Z,99.90
2018-02-14T03:07:58.564Z,99.90
2018-02-14T03:10:26.011Z,99.90
2018-02-14T03:12:53.462Z,99.90
2018-02-14T03:15:20.934Z,99.90
2018-02-14T03:17:48.382Z,99.90
2018-02-14T03:20:15.863Z,99.90
2018-02-14T03:22:44.075Z,99.90
2018-02-14T03:25:11.559Z,99.90
2018-02-14T03:27:39.031Z,99.90
2018-02-14T03:30:06.494Z,99.90
2018-02-14T03:32:33.974Z,99.90
2018-02-14T03:35:02.206Z,99.90
2018-02-14T03:37:29.689Z,99.90
2018-02-14T03:39:57.151Z,99.90
2018-02-14T03:42:24.609Z,99.90
2018-02-14T03:44:52.064Z,99.90
2018-02-14T03:47:20.331Z,99.90
2018-02-14T03:49:47.794Z,99.90
2018-02-14T03:52:15.270Z,99.90
2018-02-14T03:54:43.506Z,99.90
2018-02-14T03:57:10.996Z,99.90
2018-02-14T03:59:39.358Z,99.90
2018-02-14T04:02:06.835Z,99.90
2018-02-14T04:04:35.070Z,99.90
2018-02-14T04:07:02.538Z,99.90
2018-02-14T04:09:29.985Z,99.90
2018-02-14T04:11:57.470Z,99.90
2018-02-14T04:14:24.970Z,99.90
2018-02-14T04:16:53.180Z,99.90
2018-02-14T04:19:20.622Z,99.90
2018-02-14T04:21:48.090Z,99.90
2018-02-14T04:24:15.538Z,99.90
2018-02-14T04:26:42.998Z,99.90
2018-02-14T04:29:10.476Z,99.90
2018-02-14T04:31:37.962Z,99.90
2018-02-14T04:34:05.409Z,99.90
2018-02-14T04:36:32.878Z,99.90
2018-02-14T04:39:00.323Z,99.90
2018-02-14T04:41:27.804Z,99.90
2018-02-14T04:43:55.243Z,99.90
2018-02-14T04:46:22.725Z,99.90
2018-02-14T04:48:50.178Z,99.90
2018-02-14T04:51:17.622Z,99.90
2018-02-14T04:53:45.094Z,99.90
2018-02-14T04:56:12.545Z,99.90
2018-02-14T04:58:40.007Z,99.90
2018-02-14T05:01:07.478Z,99.90
2018-02-14T05:03:35.739Z,99.90
2018-02-14T05:06:03.226Z,99.90
2018-02-14T05:08:30.719Z,99.90
2018-02-14T05:10:58.322Z,99.90
2018-02-14T05:13:25.775Z,99.90
2018-02-14T05:15:53.238Z,99.90
2018-02-14T05:18:20.743Z,99.90
2018-02-14T05:20:48.210Z,99.90
2018-02-14T05:23:15.703Z,99.90
2018-02-14T05:25:43.160Z,99.90
2018-02-14T05:28:10.623Z,99.90
2018-02-14T05:30:38.087Z,99.90
2018-02-14T05:33:05.542Z,99.90
2018-02-14T05:35:33.007Z,99.90
2018-02-14T05:38:01.226Z,99.90
2018-02-14T05:40:28.698Z,99.90
2018-02-14T05:42:56.151Z,99.90
2018-02-14T05:45:23.647Z,99.90
2018-02-14T05:47:51.083Z,99.90
2018-02-14T05:50:18.555Z,99.90
2018-02-14T05:52:46.014Z,99.90
2018-02-14T05:55:13.527Z,99.90
2018-02-14T05:57:40.990Z,99.90
2018-02-14T06:00:08.454Z,99.90
2018-02-14T06:02:35.955Z,99.90
2018-02-14T06:05:03.418Z,99.90
2018-02-14T06:07:30.870Z,99.90
2018-02-14T06:09:58.335Z,99.90
2018-02-14T06:12:25.798Z,99.90
2018-02-14T06:14:54.043Z,99.90
2018-02-14T06:17:21.507Z,99.90
2018-02-14T06:19:49.585Z,99.90
2018-02-14T06:22:17.071Z,99.90
2018-02-14T06:24:44.548Z,99.90
2018-02-14T06:27:11.999Z,99.90
2018-02-14T06:29:39.472Z,99.90
2018-02-14T06:32:07.699Z,99.90
2018-02-14T06:34:35.170Z,99.90
2018-02-14T06:37:02.668Z,99.90
2018-02-14T06:39:30.902Z,99.90
2018-02-14T06:41:58.491Z,99.90
2018-02-14T06:44:25.967Z,99.90
2018-02-14T06:46:54.311Z,99.90
2018-02-14T06:49:21.774Z,99.90
2018-02-14T06:51:49.244Z,99.90
2018-02-14T06:54:16.700Z,99.90
2018-02-14T06:56:44.294Z,99.90
2018-02-14T06:59:11.787Z,99.90
2018-02-14T07:01:39.262Z,99.90
2018-02-14T07:04:06.718Z,99.90
2018-02-14T07:06:34.170Z,99.90
2018-02-14T07:09:01.634Z,99.90
2018-02-14T07:11:29.132Z,99.90
2018-02-14T07:13:57.371Z,99.90
2018-02-14T07:16:24.851Z,99.90
2018-02-14T07:18:52.332Z,99.90
2018-02-14T07:21:19.831Z,99.90
2018-02-14T07:23:47.286Z,99.90
2018-02-14T07:26:14.754Z,99.90
2018-02-14T07:28:42.239Z,99.90
2018-02-14T07:31:09.681Z,99.90
2018-02-14T07:33:37.174Z,99.90
2018-02-14T07:36:05.415Z,99.90
2018-02-14T07:38:32.891Z,99.90
2018-02-14T07:41:00.357Z,99.90
2018-02-14T07:43:28.586Z,99.90
2018-02-14T07:45:56.055Z,99.90
2018-02-14T07:48:23.519Z,99.90
2018-02-14T07:50:51.058Z,99.90
2018-02-14T07:53:18.562Z,99.90
2018-02-14T07:55:46.103Z,99.90
2018-02-14T07:58:13.579Z,99.90
2018-02-14T08:00:41.064Z,99.90
2018-02-14T08:03:08.517Z,99.90
2018-02-14T08:05:36.821Z,99.90
2018-02-14T08:08:04.299Z,99.90
2018-02-14T08:10:31.755Z,99.90
2018-02-14T08:12:59.247Z,99.90
2018-02-14T08:15:26.726Z,99.90
2018-02-14T08:17:55.039Z,99.90
2018-02-14T08:20:22.514Z,99.90
2018-02-14T08:22:49.964Z,99.90
2018-02-14T08:25:17.432Z,99.90
2018-02-14T08:27:44.915Z,99.90
2018-02-14T08:30:12.384Z,99.90
2018-02-14T08:32:40.599Z,99.90
2018-02-14T08:35:08.062Z,99.90
2018-02-14T08:37:35.518Z,99.90
2018-02-14T08:40:02.959Z,99.90
2018-02-14T08:42:30.479Z,99.90
2018-02-14T08:44:58.759Z,99.90
2018-02-14T08:47:26.226Z,99.90
2018-02-14T08:49:53.697Z,99.90
2018-02-14T08:52:21.961Z,97.00
2018-02-14T08:54:49.446Z,97.00
2018-02-14T08:57:16.972Z,93.80
2018-02-14T08:59:44.428Z,89.80
2018-02-14T09:02:11.897Z,83.10
2018-02-14T09:04:40.154Z,68.80
2018-02-14T09:07:07.643Z,68.60
2018-02-14T09:09:36.007Z,43.00
2018-02-14T09:12:03.478Z,42.80
2018-02-14T09:14:31.726Z,44.80
2018-02-14T09:16:59.216Z,44.80
2018-02-14T09:19:27.474Z,34.70
2018-02-14T09:21:54.939Z,34.70
2018-02-14T09:24:22.491Z,34.80
2018-02-14T09:26:49.945Z,34.30
2018-02-14T09:29:17.410Z,39.20
2018-02-14T09:31:45.105Z,44.60
2018-02-14T09:34:12.634Z,40.70
2018-02-14T09:36:40.090Z,39.00
2018-02-14T09:39:07.543Z,40.90
2018-02-14T09:41:35.187Z,39.90
2018-02-14T09:44:02.667Z,38.20
2018-02-14T09:46:30.124Z,37.50
2018-02-14T09:48:57.686Z,39.50
2018-02-14T09:51:25.145Z,35.70
2018-02-14T09:53:52.771Z,35.30
2018-02-14T09:56:20.222Z,36.00
2018-02-14T09:58:47.735Z,36.30
2018-02-14T10:01:16.182Z,37.20
2018-02-14T10:03:43.650Z,37.20
2018-02-14T10:06:11.291Z,36.60
2018-02-14T10:08:38.750Z,36.10
2018-02-14T10:11:06.398Z,36.60
2018-02-14T10:13:33.865Z,36.20
2018-02-14T10:16:01.343Z,37.50
2018-02-14T10:18:28.820Z,39.30
2018-02-14T10:20:56.262Z,43.60
2018-02-14T10:23:23.734Z,44.50
2018-02-14T10:25:51.218Z,45.60
2018-02-14T10:28:19.838Z,48.70
2018-02-14T10:30:47.342Z,48.60
2018-02-14T10:33:14.798Z,47.70
2018-02-14T10:35:42.263Z,45.10
2018-02-14T10:38:10.503Z,45.60
2018-02-14T10:40:37.974Z,45.50
2018-02-14T10:43:05.434Z,45.30
2018-02-14T10:45:32.906Z,42.50
2018-02-14T10:48:00.346Z,42.80
2018-02-14T10:50:27.803Z,42.30
2018-02-14T10:52:55.270Z,43.90
2018-02-14T10:55:22.759Z,42.50
2018-02-14T10:57:50.990Z,38.90
2018-02-14T11:00:24.192Z,38.80
2018-02-14T11:02:57.383Z,40.60
2018-02-14T11:05:30.603Z,42.80
2018-02-14T11:07:58.825Z,46.90
2018-02-14T11:10:26.294Z,46.80
2018-02-14T11:12:53.772Z,48.60
2018-02-14T11:15:21.220Z,50.70
2018-02-14T11:17:48.658Z,55.10
2018-02-14T11:20:16.134Z,54.80
2018-02-14T11:22:43.599Z,53.60
2018-02-14T11:25:11.078Z,56.00
2018-02-14T11:27:38.597Z,57.60
2018-02-14T11:30:06.062Z,61.10
2018-02-14T11:32:33.644Z,62.60
2018-02-14T11:35:01.371Z,65.00
2018-02-14T11:37:28.875Z,66.70
2018-02-14T11:39:56.339Z,66.80
2018-02-14T11:42:23.857Z,66.60
2018-02-14T11:44:51.322Z,65.30
2018-02-14T11:47:18.892Z,68.20
2018-02-14T11:49:46.433Z,68.60
2018-02-14T11:52:13.895Z,68.60
2018-02-14T11:54:41.353Z,68.20
2018-02-14T11:57:08.802Z,70.00
2018-02-14T11:59:36.292Z,69.60
2018-02-14T12:02:03.752Z,65.50
2018-02-14T12:04:31.214Z,66.30
2018-02-14T12:06:58.690Z,68.60
2018-02-14T12:09:26.912Z,66.90
2018-02-14T12:11:54.424Z,66.40
2018-02-14T12:14:21.881Z,66.40
2018-02-14T12:16:49.331Z,72.00
2018-02-14T12:19:16.802Z,72.30
2018-02-14T12:21:45.015Z,71.90
2018-02-14T12:24:12.472Z,71.70
2018-02-14T12:26:40.022Z,72.90
2018-02-14T12:29:07.555Z,68.90
2018-02-14T12:31:36.046Z,71.50
2018-02-14T12:34:04.291Z,72.00
2018-02-14T12:36:31.758Z,72.00
2018-02-14T12:38:59.417Z,71.80
2018-02-14T12:41:26.877Z,72.20
2018-02-14T12:43:54.541Z,73.60
2018-02-14T12:46:21.999Z,70.50
2018-02-14T12:48:50.203Z,73.70
2018-02-14T12:51:18.433Z,71.60
2018-02-14T12:53:45.949Z,71.60
2018-02-14T12:56:13.355Z,70.90
2018-02-14T12:58:41.115Z,72.10
2018-02-14T13:01:08.615Z,71.80
2018-02-14T13:03:36.132Z,72.10
2018-02-14T13:06:03.598Z,73.50
2018-02-14T13:08:31.072Z,67.50
2018-02-14T13:10:58.532Z,69.70
2018-02-14T13:13:25.988Z,71.20
2018-02-14T13:15:53.464Z,72.10
2018-02-14T13:18:21.688Z,71.60
2018-02-14T13:20:49.130Z,71.60
2018-02-14T13:23:16.589Z,66.30
2018-02-14T13:25:44.098Z,65.80
2018-02-14T13:28:11.567Z,66.60
2018-02-14T13:30:39.790Z,54.10
2018-02-14T13:33:07.290Z,54.10
2018-02-14T13:35:34.742Z,54.30
2018-02-14T13:38:02.236Z,52.90
2018-02-14T13:40:30.458Z,50.20
2018-02-14T13:42:57.962Z,50.30
2018-02-14T13:45:26.225Z,46.90
2018-02-14T13:47:54.452Z,42.70
2018-02-14T13:50:21.939Z,42.70
2018-02-14T13:52:49.696Z,46.30
2018-02-14T13:55:17.158Z,44.40
2018-02-14T13:57:44.617Z,44.90
2018-02-14T14:00:12.070Z,44.90
2018-02-14T14:02:39.612Z,45.40
2018-02-14T14:05:07.064Z,44.40
2018-02-14T14:07:34.518Z,46.40
2018-02-14T14:10:01.993Z,42.80
2018-02-14T14:12:29.490Z,41.90
2018-02-14T14:14:58.055Z,44.80
2018-02-14T14:17:25.512Z,44.70
2018-02-14T14:19:52.963Z,43.50
2018-02-14T14:22:20.409Z,44.50
2018-02-14T14:24:47.878Z,46.00
2018-02-14T14:27:15.330Z,43.30
2018-02-14T14:29:42.802Z,43.70
2018-02-14T14:32:10.279Z,45.20
2018-02-14T14:34:37.746Z,46.90
2018-02-14T14:37:05.977Z,50.20
2018-02-14T14:39:33.466Z,50.20
2018-02-14T14:42:00.910Z,51.20
2018-02-14T14:44:28.366Z,51.50
2018-02-14T14:46:55.839Z,51.70
2018-02-14T14:49:23.286Z,51.60
2018-02-14T14:51:50.830Z,53.90
2018-02-14T14:54:18.318Z,55.50
2018-02-14T14:56:45.807Z,55.80
2018-02-14T14:59:13.306Z,53.80
2018-02-14T15:01:40.766Z,50.90
2018-02-14T15:04:08.233Z,50.20
2018-02-14T15:06:35.728Z,51.90
2018-02-14T15:09:03.963Z,53.60
2018-02-14T15:11:31.411Z,53.70
2018-02-14T15:13:58.947Z,53.90
2018-02-14T15:16:27.154Z,50.80
2018-02-14T15:18:54.655Z,50.80
2018-02-14T15:21:22.895Z,50.60
2018-02-14T15:23:50.378Z,50.50
2018-02-14T15:26:17.863Z,53.10
2018-02-14T15:28:45.343Z,56.40
2018-02-14T15:31:13.807Z,57.90
2018-02-14T15:33:42.012Z,61.60
2018-02-14T15:36:09.471Z,61.60
2018-02-14T15:38:36.984Z,58.30
2018-02-14T15:41:05.260Z,53.80
2018-02-14T15:43:32.708Z,53.80
2018-02-14T15:46:00.179Z,56.80
2018-02-14T15:48:28.383Z,63.40
2018-02-14T15:50:55.867Z,63.40
2018-02-14T15:53:23.318Z,66.80
2018-02-14T15:55:50.765Z,68.30
2018-02-14T15:58:18.229Z,74.80
2018-02-14T16:00:45.683Z,76.10
2018-02-14T16:03:13.168Z,77.80
2018-02-14T16:05:40.731Z,78.30
2018-02-14T16:08:08.199Z,78.80
2018-02-14T16:10:35.647Z,75.40
2018-02-14T16:13:03.128Z,78.40
2018-02-14T16:15:30.814Z,79.80
2018-02-14T16:17:58.274Z,80.20
2018-02-14T16:20:25.766Z,79.40
2018-02-14T16:22:53.234Z,81.30
2018-02-14T16:25:20.743Z,82.60
2018-02-14T16:27:48.156Z,82.90
2018-02-14T16:30:15.638Z,83.20
2018-02-14T16:32:43.102Z,83.40
2018-02-14T16:35:11.358Z,84.50
2018-02-14T16:37:38.818Z,84.30
2018-02-14T16:40:06.283Z,85.00
2018-02-14T16:42:33.745Z,85.40
2018-02-14T16:45:01.187Z,86.00
2018-02-14T16:47:28.654Z,87.80
2018-02-14T16:49:56.135Z,87.90
2018-02-14T16:52:24.378Z,89.10
2018-02-14T16:54:51.847Z,89.10
2018-02-14T16:57:19.342Z,89.10
2018-02-14T16:59:46.789Z,88.60
2018-02-14T17:02:15.066Z,89.30
2018-02-14T17:04:42.810Z,89.30
2018-02-14T17:07:11.069Z,89.60
2018-02-14T17:09:38.570Z,89.60
2018-02-14T17:12:06.836Z,90.10
2018-02-14T17:14:35.076Z,90.40
2018-02-14T17:17:02.556Z,90.40
2018-02-14T17:19:30.012Z,90.40
2018-02-14T17:21:57.451Z,90.40
2018-02-14T17:24:24.986Z,90.50
2018-02-14T17:26:52.471Z,90.60
2018-02-14T17:29:19.935Z,90.00
2018-02-14T17:31:47.405Z,90.30
2018-02-14T17:34:14.850Z,90.00
2018-02-14T17:36:42.303Z,90.40
2018-02-14T17:39:09.764Z,90.40
2018-02-14T17:41:37.253Z,90.80
2018-02-14T17:44:04.694Z,91.10
2018-02-14T17:46:32.139Z,91.40
2018-02-14T17:48:59.643Z,91.60
2018-02-14T17:51:27.130Z,91.80
2018-02-14T17:53:54.729Z,92.00
2018-02-14T17:56:22.204Z,91.60
2018-02-14T17:58:50.441Z,91.80
2018-02-14T18:01:17.898Z,91.80
2018-02-14T18:03:45.482Z,92.30
2018-02-14T18:06:13.108Z,92.50
2018-02-14T18:08:40.574Z,92.80
2018-02-14T18:11:14.007Z,92.60
2018-02-14T18:13:41.513Z,92.80
2018-02-14T18:16:12.922Z,93.20
2018-02-14T18:18:40.398Z,93.20
2018-02-14T18:21:08.031Z,93.30
2018-02-14T18:23:35.503Z,93.60
2018-02-14T18:26:03.919Z,93.40
2018-02-14T18:28:31.343Z,93.40
2018-02-14T18:30:59.579Z,94.30
2018-02-14T18:33:27.088Z,94.20
2018-02-14T18:35:55.410Z,94.60
2018-02-14T18:38:22.871Z,94.60
2018-02-14T18:40:50.337Z,94.80
2018-02-14T18:43:17.803Z,95.20
2018-02-14T18:45:45.290Z,95.50
2018-02-14T18:48:13.538Z,95.90
2018-02-14T18:50:41.072Z,95.90
2018-02-14T18:53:08.528Z,96.10
2018-02-14T18:55:36.040Z,96.40
2018-02-14T18:58:03.543Z,96.70
2018-02-14T19:00:30.999Z,96.80
2018-02-14T19:02:58.453Z,97.00
2018-02-14T19:05:25.919Z,97.20
2018-02-14T19:07:53.401Z,97.00
2018-02-14T19:10:20.868Z,97.10
2018-02-14T19:12:48.336Z,97.10
2018-02-14T19:15:16.586Z,97.30
2018-02-14T19:17:44.062Z,97.30
2018-02-14T19:20:11.524Z,97.60
2018-02-14T19:22:38.987Z,97.40
2018-02-14T19:25:06.458Z,97.60
2018-02-14T19:27:33.959Z,97.90
2018-02-14T19:30:01.442Z,98.00
2018-02-14T19:32:28.874Z,98.10
2018-02-14T19:34:56.534Z,97.90
2018-02-14T19:37:23.989Z,98.20
2018-02-14T19:39:52.222Z,98.40
2018-02-14T19:42:19.691Z,98.30
2018-02-14T19:44:47.910Z,98.80
2018-02-14T19:47:15.362Z,98.70
2018-02-14T19:49:42.847Z,98.60
2018-02-14T19:52:10.401Z,98.50
2018-02-14T19:54:37.861Z,98.50
2018-02-14T19:57:05.336Z,98.80
2018-02-14T19:59:32.812Z,98.70
2018-02-14T20:02:00.350Z,98.70
2018-02-14T20:04:27.784Z,99.10
2018-02-14T20:06:55.319Z,98.90
2018-02-14T20:09:22.775Z,98.50
2018-02-14T20:11:50.250Z,98.60
2018-02-14T20:14:17.692Z,98.40
2018-02-14T20:16:45.150Z,98.30
2018-02-14T20:19:12.589Z,98.20
2018-02-14T20:21:40.824Z,98.20
2018-02-14T20:24:08.272Z,98.20
2018-02-14T20:26:35.737Z,98.00
2018-02-14T20:29:03.191Z,98.60
2018-02-14T20:31:30.688Z,98.20
2018-02-14T20:33:58.121Z,98.00
2018-02-14T20:36:25.594Z,97.90
2018-02-14T20:38:53.061Z,97.60
2018-02-14T20:41:20.517Z,97.70
2018-02-14T20:43:48.777Z,97.90
2018-02-14T20:46:16.218Z,97.80
2018-02-14T20:48:43.716Z,98.00
2018-02-14T20:51:11.222Z,98.20
2018-02-14T20:53:38.690Z,98.00
2018-02-14T20:56:06.183Z,98.20
2018-02-14T20:58:33.653Z,98.10
2018-02-14T21:01:01.922Z,98.00
2018-02-14T21:03:29.735Z,98.00
2018-02-14T21:05:57.195Z,98.00
2018-02-14T21:08:24.716Z,98.00
2018-02-14T21:10:52.952Z,98.10
2018-02-14T21:13:20.438Z,98.10
2018-02-14T21:15:47.891Z,98.40
2018-02-14T21:18:15.338Z,98.00
2018-02-14T21:20:42.886Z,98.00
2018-02-14T21:23:10.344Z,98.10
2018-02-14T21:25:37.862Z,98.20
2018-02-14T21:28:05.368Z,98.10
2018-02-14T21:30:32.854Z,98.20
2018-02-14T21:33:00.351Z,98.20
2018-02-14T21:35:27.794Z,98.10
2018-02-14T21:37:55.302Z,98.40
2018-02-14T21:40:22.849Z,98.60
2018-02-14T21:42:50.303Z,98.40
2018-02-14T21:45:17.785Z,98.40
2018-02-14T21:47:45.260Z,98.50
2018-02-14T21:50:12.745Z,98.60
2018-02-14T21:52:40.967Z,98.70
2018-02-14T21:55:08.434Z,98.70
2018-02-14T21:57:35.983Z,98.60
2018-02-14T22:00:03.455Z,98.80
2018-02-14T22:02:30.957Z,98.50
2018-02-14T22:04:59.189Z,98.50
2018-02-14T22:07:26.686Z,98.50
2018-02-14T22:09:54.932Z,98.40
2018-02-14T22:12:22.414Z,98.30
2018-02-14T22:14:50.637Z,98.40
2018-02-14T22:17:18.106Z,98.40
2018-02-14T22:19:45.574Z,98.40
2018-02-14T22:22:13.074Z,98.60
2018-02-14T22:24:41.334Z,98.60
2018-02-14T22:27:08.795Z,98.60
2018-02-14T22:29:36.258Z,98.60
2018-02-14T22:32:04.483Z,98.60
2018-02-14T22:34:31.951Z,98.60
2018-02-14T22:36:59.423Z,98.60
2018-02-14T22:39:26.863Z,98.70
2018-02-14T22:41:54.323Z,98.70
2018-02-14T22:44:21.765Z,98.80
2018-02-14T22:46:49.268Z,98.80
2018-02-14T22:49:16.737Z,98.90
2018-02-14T22:51:44.197Z,98.40
2018-02-14T22:54:12.445Z,99.00
2018-02-14T22:56:39.892Z,98.90
2018-02-14T22:59:07.430Z,98.70
2018-02-14T23:01:34.889Z,98.40
2018-02-14T23:04:02.402Z,98.60
2018-02-14T23:06:29.888Z,98.10
2018-02-14T23:08:57.400Z,98.00
2018-02-14T23:11:24.960Z,97.70
2018-02-14T23:13:52.521Z,97.30
2018-02-14T23:16:20.206Z,96.90
2018-02-14T23:18:48.468Z,96.60
2018-02-14T23:21:16.056Z,96.50
2018-02-14T23:23:44.262Z,96.40
2018-02-14T23:26:11.775Z,96.40
2018-02-14T23:28:39.246Z,96.60
2018-02-14T23:31:07.491Z,96.90
2018-02-14T23:33:34.958Z,96.90
2018-02-14T23:36:02.430Z,97.00
2018-02-14T23:38:29.889Z,96.90
2018-02-14T23:40:58.160Z,96.90
2018-02-14T23:43:25.623Z,96.90
2018-02-14T23:45:53.083Z,97.20
2018-02-14T23:48:21.318Z,96.90
2018-02-14T23:50:48.806Z,96.60
2018-02-14T23:53:16.373Z,96.60
2018-02-14T23:55:43.882Z,96.40
2018-02-14T23:58:11.352Z,96.70
